sensor_id;sensor_type;location;lat;lon;timestamp;P1;durP1;ratioP1;P2;durP2;ratioP2
36205;SDS011;22242;48.796;9.930;2024-02-04T00:00:23;5.18;;;1.10;;
36205;SDS011;22242;48.796;9.930;2024-02-04T00:02:50;0.82;;;0.82;;
36205;SDS011;22242;48.796;9.930;2024-02-04T00:05:18;1.13;;;0.88;;
36205;SDS011;22242;48.796;9.930;2024-02-04T00:07:45;0.85;;;0.85;;
36205;SDS011;22242;48.796;9.930;2024-02-04T00:10:12;1.63;;;0.93;;
36205;SDS011;22242;48.796;9.930;2024-02-04T00:12:40;1.00;;;0.80;;
36205;SDS011;22242;48.796;9.930;2024-02-04T00:15:07;0.80;;;0.80;;
36205;SDS011;22242;48.796;9.930;2024-02-04T00:17:34;1.55;;;0.90;;
36205;SDS011;22242;48.796;9.930;2024-02-04T00:20:02;1.38;;;0.90;;
36205;SDS011;22242;48.796;9.930;2024-02-04T00:22:32;2.03;;;0.70;;
36205;SDS011;22242;48.796;9.930;2024-02-04T00:24:59;0.90;;;0.73;;
36205;SDS011;22242;48.796;9.930;2024-02-04T00:27:29;1.00;;;0.90;;
36205;SDS011;22242;48.796;9.930;2024-02-04T00:29:56;1.23;;;1.00;;
36205;SDS011;22242;48.796;9.930;2024-02-04T00:32:23;1.48;;;1.08;;
36205;SDS011;22242;48.796;9.930;2024-02-04T00:34:50;1.10;;;0.95;;
36205;SDS011;22242;48.796;9.930;2024-02-04T00:37:17;1.10;;;1.00;;
36205;SDS011;22242;48.796;9.930;2024-02-04T00:39:45;1.02;;;0.90;;
36205;SDS011;22242;48.796;9.930;2024-02-04T00:42:12;2.92;;;1.10;;
36205;SDS011;22242;48.796;9.930;2024-02-04T00:44:39;1.27;;;0.90;;
36205;SDS011;22242;48.796;9.930;2024-02-04T00:47:06;1.35;;;0.90;;
36205;SDS011;22242;48.796;9.930;2024-02-04T00:49:33;2.25;;;0.80;;
36205;SDS011;22242;48.796;9.930;2024-02-04T00:51:59;0.95;;;0.85;;
36205;SDS011;22242;48.796;9.930;2024-02-04T00:54:26;2.42;;;0.68;;
36205;SDS011;22242;48.796;9.930;2024-02-04T00:56:54;3.00;;;0.90;;
36205;SDS011;22242;48.796;9.930;2024-02-04T00:59:22;2.33;;;0.90;;
36205;SDS011;22242;48.796;9.930;2024-02-04T01:01:49;0.70;;;0.70;;
36205;SDS011;22242;48.796;9.930;2024-02-04T01:04:16;0.90;;;0.70;;
36205;SDS011;22242;48.796;9.930;2024-02-04T01:06:43;3.42;;;0.90;;
36205;SDS011;22242;48.796;9.930;2024-02-04T01:09:10;1.42;;;0.65;;
36205;SDS011;22242;48.796;9.930;2024-02-04T01:11:36;0.73;;;0.60;;
36205;SDS011;22242;48.796;9.930;2024-02-04T01:14:05;1.73;;;0.70;;
36205;SDS011;22242;48.796;9.930;2024-02-04T01:16:31;0.70;;;0.70;;
36205;SDS011;22242;48.796;9.930;2024-02-04T01:18:58;1.10;;;0.77;;
36205;SDS011;22242;48.796;9.930;2024-02-04T01:21:25;1.08;;;0.60;;
36205;SDS011;22242;48.796;9.930;2024-02-04T01:23:53;0.98;;;0.60;;
36205;SDS011;22242;48.796;9.930;2024-02-04T01:26:20;0.88;;;0.70;;
36205;SDS011;22242;48.796;9.930;2024-02-04T01:28:48;0.70;;;0.70;;
36205;SDS011;22242;48.796;9.930;2024-02-04T01:31:16;0.70;;;0.70;;
36205;SDS011;22242;48.796;9.930;2024-02-04T01:33:43;0.63;;;0.60;;
36205;SDS011;22242;48.796;9.930;2024-02-04T01:36:10;0.63;;;0.63;;
36205;SDS011;22242;48.796;9.930;2024-02-04T01:38:37;0.85;;;0.50;;
36205;SDS011;22242;48.796;9.930;2024-02-04T01:41:03;0.50;;;0.50;;
36205;SDS011;22242;48.796;9.930;2024-02-04T01:43:30;0.60;;;0.60;;
36205;SDS011;22242;48.796;9.930;2024-02-04T01:45:57;0.40;;;0.40;;
36205;SDS011;22242;48.796;9.930;2024-02-04T01:48:25;1.40;;;0.63;;
36205;SDS011;22242;48.796;9.930;2024-02-04T01:50:53;0.95;;;0.60;;
36205;SDS011;22242;48.796;9.930;2024-02-04T01:53:22;0.40;;;0.40;;
36205;SDS011;22242;48.796;9.930;2024-02-04T01:55:49;0.28;;;0.28;;
36205;SDS011;22242;48.796;9.930;2024-02-04T01:58:16;0.50;;;0.50;;
36205;SDS011;22242;48.796;9.930;2024-02-04T02:00:44;0.45;;;0.40;;
36205;SDS011;22242;48.796;9.930;2024-02-04T02:03:12;0.60;;;0.60;;
36205;SDS011;22242;48.796;9.930;2024-02-04T02:05:41;0.40;;;0.40;;
36205;SDS011;22242;48.796;9.930;2024-02-04T02:08:08;1.02;;;0.70;;
36205;SDS011;22242;48.796;9.930;2024-02-04T02:10:36;0.95;;;0.50;;
36205;SDS011;22242;48.796;9.930;2024-02-04T02:13:06;0.60;;;0.60;;
36205;SDS011;22242;48.796;9.930;2024-02-04T02:15:39;1.08;;;0.57;;
36205;SDS011;22242;48.796;9.930;2024-02-04T02:18:10;0.63;;;0.53;;
36205;SDS011;22242;48.796;9.930;2024-02-04T02:20:50;0.63;;;0.63;;
36205;SDS011;22242;48.796;9.930;2024-02-04T02:23:30;0.68;;;0.65;;
36205;SDS011;22242;48.796;9.930;2024-02-04T02:26:02;0.40;;;0.40;;
36205;SDS011;22242;48.796;9.930;2024-02-04T02:28:30;0.95;;;0.73;;
36205;SDS011;22242;48.796;9.930;2024-02-04T02:30:57;0.50;;;0.50;;
36205;SDS011;22242;48.796;9.930;2024-02-04T02:33:24;0.30;;;0.30;;
36205;SDS011;22242;48.796;9.930;2024-02-04T02:35:51;0.68;;;0.40;;
36205;SDS011;22242;48.796;9.930;2024-02-04T02:38:24;0.52;;;0.52;;
36205;SDS011;22242;48.796;9.930;2024-02-04T02:40:58;1.65;;;0.63;;
36205;SDS011;22242;48.796;9.930;2024-02-04T02:43:26;0.45;;;0.45;;
36205;SDS011;22242;48.796;9.930;2024-02-04T02:45:55;0.90;;;0.60;;
36205;SDS011;22242;48.796;9.930;2024-02-04T02:48:22;0.73;;;0.55;;
36205;SDS011;22242;48.796;9.930;2024-02-04T02:50:51;0.60;;;0.60;;
36205;SDS011;22242;48.796;9.930;2024-02-04T02:53:17;0.50;;;0.50;;
36205;SDS011;22242;48.796;9.930;2024-02-04T02:55:45;0.52;;;0.52;;
36205;SDS011;22242;48.796;9.930;2024-02-04T02:58:12;1.00;;;0.70;;
36205;SDS011;22242;48.796;9.930;2024-02-04T03:00:40;0.45;;;0.45;;
36205;SDS011;22242;48.796;9.930;2024-02-04T03:03:07;1.02;;;0.60;;
36205;SDS011;22242;48.796;9.930;2024-02-04T03:05:34;0.82;;;0.70;;
36205;SDS011;22242;48.796;9.930;2024-02-04T03:08:00;0.80;;;0.80;;
36205;SDS011;22242;48.796;9.930;2024-02-04T03:10:27;0.80;;;0.52;;
36205;SDS011;22242;48.796;9.930;2024-02-04T03:12:54;0.70;;;0.60;;
36205;SDS011;22242;48.796;9.930;2024-02-04T03:15:21;0.40;;;0.40;;
36205;SDS011;22242;48.796;9.930;2024-02-04T03:17:49;0.55;;;0.50;;
36205;SDS011;22242;48.796;9.930;2024-02-04T03:20:16;0.50;;;0.50;;
36205;SDS011;22242;48.796;9.930;2024-02-04T03:22:43;0.95;;;0.60;;
36205;SDS011;22242;48.796;9.930;2024-02-04T03:25:11;0.60;;;0.60;;
36205;SDS011;22242;48.796;9.930;2024-02-04T03:27:39;0.60;;;0.60;;
36205;SDS011;22242;48.796;9.930;2024-02-04T03:30:06;0.82;;;0.70;;
36205;SDS011;22242;48.796;9.930;2024-02-04T03:32:33;0.57;;;0.50;;
36205;SDS011;22242;48.796;9.930;2024-02-04T03:35:02;1.48;;;0.50;;
36205;SDS011;22242;48.796;9.930;2024-02-04T03:37:30;0.90;;;0.80;;
36205;SDS011;22242;48.796;9.930;2024-02-04T03:39:57;2.40;;;0.52;;
36205;SDS011;22242;48.796;9.930;2024-02-04T03:42:24;0.95;;;0.75;;
36205;SDS011;22242;48.796;9.930;2024-02-04T03:44:51;1.00;;;0.68;;
36205;SDS011;22242;48.796;9.930;2024-02-04T03:47:18;0.55;;;0.50;;
36205;SDS011;22242;48.796;9.930;2024-02-04T03:49:45;1.75;;;0.80;;
36205;SDS011;22242;48.796;9.930;2024-02-04T03:52:13;0.75;;;0.50;;
36205;SDS011;22242;48.796;9.930;2024-02-04T03:54:41;1.00;;;0.73;;
36205;SDS011;22242;48.796;9.930;2024-02-04T03:57:07;0.75;;;0.60;;
36205;SDS011;22242;48.796;9.930;2024-02-04T03:59:34;0.43;;;0.40;;
36205;SDS011;22242;48.796;9.930;2024-02-04T04:02:01;0.60;;;0.60;;
36205;SDS011;22242;48.796;9.930;2024-02-04T04:04:28;0.82;;;0.60;;
36205;SDS011;22242;48.796;9.930;2024-02-04T04:06:55;0.55;;;0.55;;
36205;SDS011;22242;48.796;9.930;2024-02-04T04:09:23;0.88;;;0.60;;
36205;SDS011;22242;48.796;9.930;2024-02-04T04:11:49;0.52;;;0.52;;
36205;SDS011;22242;48.796;9.930;2024-02-04T04:14:16;0.70;;;0.70;;
36205;SDS011;22242;48.796;9.930;2024-02-04T04:16:43;0.63;;;0.60;;
36205;SDS011;22242;48.796;9.930;2024-02-04T04:19:10;2.25;;;0.75;;
36205;SDS011;22242;48.796;9.930;2024-02-04T04:21:37;0.82;;;0.77;;
36205;SDS011;22242;48.796;9.930;2024-02-04T04:24:05;0.60;;;0.60;;
36205;SDS011;22242;48.796;9.930;2024-02-04T04:26:33;0.75;;;0.68;;
36205;SDS011;22242;48.796;9.930;2024-02-04T04:29:00;0.95;;;0.80;;
36205;SDS011;22242;48.796;9.930;2024-02-04T04:31:27;0.45;;;0.43;;
36205;SDS011;22242;48.796;9.930;2024-02-04T04:33:54;0.63;;;0.60;;
36205;SDS011;22242;48.796;9.930;2024-02-04T04:36:21;0.63;;;0.63;;
36205;SDS011;22242;48.796;9.930;2024-02-04T04:38:48;0.82;;;0.80;;
36205;SDS011;22242;48.796;9.930;2024-02-04T04:41:15;0.70;;;0.70;;
36205;SDS011;22242;48.796;9.930;2024-02-04T04:43:43;0.88;;;0.70;;
36205;SDS011;22242;48.796;9.930;2024-02-04T04:46:10;0.70;;;0.70;;
36205;SDS011;22242;48.796;9.930;2024-02-04T04:48:37;0.70;;;0.70;;
36205;SDS011;22242;48.796;9.930;2024-02-04T04:51:04;1.92;;;0.70;;
36205;SDS011;22242;48.796;9.930;2024-02-04T04:53:33;0.60;;;0.60;;
36205;SDS011;22242;48.796;9.930;2024-02-04T04:56:00;0.75;;;0.75;;
36205;SDS011;22242;48.796;9.930;2024-02-04T04:58:27;0.50;;;0.50;;
36205;SDS011;22242;48.796;9.930;2024-02-04T05:00:55;1.38;;;0.50;;
36205;SDS011;22242;48.796;9.930;2024-02-04T05:03:21;1.88;;;0.60;;
36205;SDS011;22242;48.796;9.930;2024-02-04T05:05:48;0.70;;;0.60;;
36205;SDS011;22242;48.796;9.930;2024-02-04T05:08:15;0.82;;;0.65;;
36205;SDS011;22242;48.796;9.930;2024-02-04T05:10:42;0.85;;;0.57;;
36205;SDS011;22242;48.796;9.930;2024-02-04T05:13:08;0.70;;;0.68;;
36205;SDS011;22242;48.796;9.930;2024-02-04T05:15:35;0.80;;;0.80;;
36205;SDS011;22242;48.796;9.930;2024-02-04T05:18:04;0.60;;;0.60;;
36205;SDS011;22242;48.796;9.930;2024-02-04T05:20:30;1.08;;;0.60;;
36205;SDS011;22242;48.796;9.930;2024-02-04T05:22:57;1.42;;;0.60;;
36205;SDS011;22242;48.796;9.930;2024-02-04T05:25:24;0.77;;;0.60;;
36205;SDS011;22242;48.796;9.930;2024-02-04T05:27:51;0.70;;;0.70;;
36205;SDS011;22242;48.796;9.930;2024-02-04T05:30:18;0.90;;;0.60;;
36205;SDS011;22242;48.796;9.930;2024-02-04T05:32:45;1.17;;;0.52;;
36205;SDS011;22242;48.796;9.930;2024-02-04T05:35:13;0.70;;;0.70;;
36205;SDS011;22242;48.796;9.930;2024-02-04T05:37:40;0.50;;;0.50;;
36205;SDS011;22242;48.796;9.930;2024-02-04T05:40:07;1.33;;;0.60;;
36205;SDS011;22242;48.796;9.930;2024-02-04T05:42:34;0.50;;;0.50;;
36205;SDS011;22242;48.796;9.930;2024-02-04T05:45:02;1.67;;;0.68;;
36205;SDS011;22242;48.796;9.930;2024-02-04T05:47:30;1.20;;;0.68;;
36205;SDS011;22242;48.796;9.930;2024-02-04T05:49:57;1.42;;;0.50;;
36205;SDS011;22242;48.796;9.930;2024-02-04T05:52:26;0.88;;;0.60;;
36205;SDS011;22242;48.796;9.930;2024-02-04T05:54:52;1.00;;;0.70;;
36205;SDS011;22242;48.796;9.930;2024-02-04T05:57:19;0.43;;;0.43;;
36205;SDS011;22242;48.796;9.930;2024-02-04T05:59:46;0.50;;;0.50;;
36205;SDS011;22242;48.796;9.930;2024-02-04T06:02:13;0.80;;;0.40;;
36205;SDS011;22242;48.796;9.930;2024-02-04T06:04:40;1.58;;;0.50;;
36205;SDS011;22242;48.796;9.930;2024-02-04T06:07:07;0.95;;;0.43;;
36205;SDS011;22242;48.796;9.930;2024-02-04T06:09:35;0.50;;;0.47;;
36205;SDS011;22242;48.796;9.930;2024-02-04T06:12:02;0.60;;;0.60;;
36205;SDS011;22242;48.796;9.930;2024-02-04T06:14:32;0.32;;;0.32;;
36205;SDS011;22242;48.796;9.930;2024-02-04T06:16:59;1.05;;;0.60;;
36205;SDS011;22242;48.796;9.930;2024-02-04T06:19:26;0.50;;;0.40;;
36205;SDS011;22242;48.796;9.930;2024-02-04T06:21:53;0.50;;;0.50;;
36205;SDS011;22242;48.796;9.930;2024-02-04T06:24:20;2.15;;;0.45;;
36205;SDS011;22242;48.796;9.930;2024-02-04T06:26:48;0.85;;;0.60;;
36205;SDS011;22242;48.796;9.930;2024-02-04T06:29:15;0.60;;;0.60;;
36205;SDS011;22242;48.796;9.930;2024-02-04T06:31:43;1.15;;;0.60;;
36205;SDS011;22242;48.796;9.930;2024-02-04T06:34:10;0.40;;;0.40;;
36205;SDS011;22242;48.796;9.930;2024-02-04T06:36:37;0.40;;;0.40;;
36205;SDS011;22242;48.796;9.930;2024-02-04T06:39:04;0.52;;;0.52;;
36205;SDS011;22242;48.796;9.930;2024-02-04T06:41:33;0.60;;;0.30;;
36205;SDS011;22242;48.796;9.930;2024-02-04T06:44:02;0.65;;;0.40;;
36205;SDS011;22242;48.796;9.930;2024-02-04T06:46:29;1.80;;;0.55;;
36205;SDS011;22242;48.796;9.930;2024-02-04T06:48:57;0.40;;;0.40;;
36205;SDS011;22242;48.796;9.930;2024-02-04T06:51:24;0.30;;;0.30;;
36205;SDS011;22242;48.796;9.930;2024-02-04T06:53:50;1.38;;;0.40;;
36205;SDS011;22242;48.796;9.930;2024-02-04T06:56:17;0.40;;;0.40;;
36205;SDS011;22242;48.796;9.930;2024-02-04T06:58:44;2.15;;;0.50;;
36205;SDS011;22242;48.796;9.930;2024-02-04T07:01:12;0.63;;;0.50;;
36205;SDS011;22242;48.796;9.930;2024-02-04T07:03:39;0.52;;;0.52;;
36205;SDS011;22242;48.796;9.930;2024-02-04T07:06:06;0.60;;;0.60;;
36205;SDS011;22242;48.796;9.930;2024-02-04T07:08:33;0.50;;;0.50;;
36205;SDS011;22242;48.796;9.930;2024-02-04T07:11:00;0.82;;;0.50;;
36205;SDS011;22242;48.796;9.930;2024-02-04T07:13:28;0.32;;;0.30;;
36205;SDS011;22242;48.796;9.930;2024-02-04T07:15:55;1.20;;;0.60;;
36205;SDS011;22242;48.796;9.930;2024-02-04T07:18:24;0.40;;;0.40;;
36205;SDS011;22242;48.796;9.930;2024-02-04T07:20:51;0.70;;;0.47;;
36205;SDS011;22242;48.796;9.930;2024-02-04T07:23:18;0.30;;;0.30;;
36205;SDS011;22242;48.796;9.930;2024-02-04T07:25:44;1.00;;;0.50;;
36205;SDS011;22242;48.796;9.930;2024-02-04T07:28:11;2.10;;;0.80;;
36205;SDS011;22242;48.796;9.930;2024-02-04T07:30:38;1.40;;;0.45;;
36205;SDS011;22242;48.796;9.930;2024-02-04T07:33:05;1.65;;;0.60;;
36205;SDS011;22242;48.796;9.930;2024-02-04T07:35:33;1.77;;;1.50;;
36205;SDS011;22242;48.796;9.930;2024-02-04T07:38:00;1.40;;;1.20;;
36205;SDS011;22242;48.796;9.930;2024-02-04T07:40:27;0.82;;;0.80;;
36205;SDS011;22242;48.796;9.930;2024-02-04T07:42:55;1.73;;;1.45;;
36205;SDS011;22242;48.796;9.930;2024-02-04T07:45:22;2.80;;;2.40;;
36205;SDS011;22242;48.796;9.930;2024-02-04T07:47:48;1.17;;;0.70;;
36205;SDS011;22242;48.796;9.930;2024-02-04T07:50:15;1.10;;;1.00;;
36205;SDS011;22242;48.796;9.930;2024-02-04T07:52:43;1.40;;;0.90;;
36205;SDS011;22242;48.796;9.930;2024-02-04T07:55:10;1.05;;;0.90;;
36205;SDS011;22242;48.796;9.930;2024-02-04T07:57:37;0.85;;;0.60;;
36205;SDS011;22242;48.796;9.930;2024-02-04T08:00:04;0.90;;;0.65;;
36205;SDS011;22242;48.796;9.930;2024-02-04T08:02:39;0.50;;;0.50;;
36205;SDS011;22242;48.796;9.930;2024-02-04T08:05:06;1.42;;;0.60;;
36205;SDS011;22242;48.796;9.930;2024-02-04T08:07:32;1.88;;;0.50;;
36205;SDS011;22242;48.796;9.930;2024-02-04T08:10:01;0.98;;;0.52;;
36205;SDS011;22242;48.796;9.930;2024-02-04T08:12:27;2.25;;;0.60;;
36205;SDS011;22242;48.796;9.930;2024-02-04T08:14:54;1.90;;;1.25;;
36205;SDS011;22242;48.796;9.930;2024-02-04T08:17:21;4.95;;;2.85;;
36205;SDS011;22242;48.796;9.930;2024-02-04T08:19:48;3.58;;;1.52;;
36205;SDS011;22242;48.796;9.930;2024-02-04T08:22:15;2.38;;;1.65;;
36205;SDS011;22242;48.796;9.930;2024-02-04T08:24:42;1.17;;;1.08;;
36205;SDS011;22242;48.796;9.930;2024-02-04T08:27:11;1.00;;;0.70;;
36205;SDS011;22242;48.796;9.930;2024-02-04T08:29:37;0.73;;;0.73;;
36205;SDS011;22242;48.796;9.930;2024-02-04T08:32:04;2.28;;;0.52;;
36205;SDS011;22242;48.796;9.930;2024-02-04T08:34:31;1.20;;;0.40;;
36205;SDS011;22242;48.796;9.930;2024-02-04T08:36:58;0.20;;;0.20;;
36205;SDS011;22242;48.796;9.930;2024-02-04T08:39:25;0.52;;;0.40;;
36205;SDS011;22242;48.796;9.930;2024-02-04T08:41:52;0.93;;;0.40;;
36205;SDS011;22242;48.796;9.930;2024-02-04T08:44:20;1.52;;;0.30;;
36205;SDS011;22242;48.796;9.930;2024-02-04T08:46:47;0.75;;;0.55;;
36205;SDS011;22242;48.796;9.930;2024-02-04T08:49:13;0.40;;;0.38;;
36205;SDS011;22242;48.796;9.930;2024-02-04T08:52:39;1.20;;;0.50;;
36205;SDS011;22242;48.796;9.930;2024-02-04T08:55:06;0.82;;;0.38;;
36205;SDS011;22242;48.796;9.930;2024-02-04T08:57:34;0.65;;;0.20;;
36205;SDS011;22242;48.796;9.930;2024-02-04T09:00:00;0.90;;;0.55;;
36205;SDS011;22242;48.796;9.930;2024-02-04T09:02:27;0.22;;;0.22;;
36205;SDS011;22242;48.796;9.930;2024-02-04T09:07:45;0.38;;;0.38;;
36205;SDS011;22242;48.796;9.930;2024-02-04T09:10:12;0.20;;;0.20;;
36205;SDS011;22242;48.796;9.930;2024-02-04T09:12:39;0.30;;;0.30;;
36205;SDS011;22242;48.796;9.930;2024-02-04T09:15:06;0.60;;;0.50;;
36205;SDS011;22242;48.796;9.930;2024-02-04T09:17:33;0.47;;;0.40;;
36205;SDS011;22242;48.796;9.930;2024-02-04T09:20:00;1.50;;;0.40;;
36205;SDS011;22242;48.796;9.930;2024-02-04T09:22:27;0.40;;;0.40;;
36205;SDS011;22242;48.796;9.930;2024-02-04T09:24:55;0.32;;;0.30;;
36205;SDS011;22242;48.796;9.930;2024-02-04T09:27:22;0.30;;;0.30;;
36205;SDS011;22242;48.796;9.930;2024-02-04T09:29:50;0.55;;;0.45;;
36205;SDS011;22242;48.796;9.930;2024-02-04T09:32:17;0.57;;;0.40;;
36205;SDS011;22242;48.796;9.930;2024-02-04T09:34:44;1.02;;;0.40;;
36205;SDS011;22242;48.796;9.930;2024-02-04T09:37:11;0.90;;;0.50;;
36205;SDS011;22242;48.796;9.930;2024-02-04T09:39:37;0.85;;;0.40;;
36205;SDS011;22242;48.796;9.930;2024-02-04T09:42:06;1.25;;;0.40;;
36205;SDS011;22242;48.796;9.930;2024-02-04T09:44:32;0.60;;;0.60;;
36205;SDS011;22242;48.796;9.930;2024-02-04T09:47:01;1.75;;;0.60;;
36205;SDS011;22242;48.796;9.930;2024-02-04T09:49:28;0.60;;;0.50;;
36205;SDS011;22242;48.796;9.930;2024-02-04T09:51:57;0.30;;;0.30;;
36205;SDS011;22242;48.796;9.930;2024-02-04T09:54:26;1.00;;;0.40;;
36205;SDS011;22242;48.796;9.930;2024-02-04T09:56:55;1.77;;;0.40;;
36205;SDS011;22242;48.796;9.930;2024-02-04T09:59:23;0.57;;;0.50;;
36205;SDS011;22242;48.796;9.930;2024-02-04T10:01:50;0.85;;;0.50;;
36205;SDS011;22242;48.796;9.930;2024-02-04T10:04:18;1.45;;;0.40;;
36205;SDS011;22242;48.796;9.930;2024-02-04T10:06:45;2.47;;;0.45;;
36205;SDS011;22242;48.796;9.930;2024-02-04T10:09:12;0.47;;;0.30;;
36205;SDS011;22242;48.796;9.930;2024-02-04T10:11:39;1.95;;;0.63;;
36205;SDS011;22242;48.796;9.930;2024-02-04T10:14:06;0.30;;;0.30;;
36205;SDS011;22242;48.796;9.930;2024-02-04T10:16:36;0.32;;;0.30;;
36205;SDS011;22242;48.796;9.930;2024-02-04T10:19:03;0.55;;;0.32;;
36205;SDS011;22242;48.796;9.930;2024-02-04T10:21:30;1.20;;;0.20;;
36205;SDS011;22242;48.796;9.930;2024-02-04T10:23:57;0.40;;;0.20;;
36205;SDS011;22242;48.796;9.930;2024-02-04T10:26:27;0.40;;;0.22;;
36205;SDS011;22242;48.796;9.930;2024-02-04T10:28:57;0.45;;;0.40;;
36205;SDS011;22242;48.796;9.930;2024-02-04T10:31:24;1.10;;;0.32;;
36205;SDS011;22242;48.796;9.930;2024-02-04T10:33:53;0.50;;;0.50;;
36205;SDS011;22242;48.796;9.930;2024-02-04T10:36:21;0.50;;;0.40;;
36205;SDS011;22242;48.796;9.930;2024-02-04T10:38:48;0.43;;;0.40;;
36205;SDS011;22242;48.796;9.930;2024-02-04T10:41:15;0.17;;;0.17;;
36205;SDS011;22242;48.796;9.930;2024-02-04T10:43:44;0.43;;;0.40;;
36205;SDS011;22242;48.796;9.930;2024-02-04T10:46:12;0.50;;;0.50;;
36205;SDS011;22242;48.796;9.930;2024-02-04T10:48:41;0.80;;;0.40;;
36205;SDS011;22242;48.796;9.930;2024-02-04T10:51:14;0.47;;;0.30;;
36205;SDS011;22242;48.796;9.930;2024-02-04T10:53:41;0.82;;;0.30;;
36205;SDS011;22242;48.796;9.930;2024-02-04T10:56:12;0.22;;;0.22;;
36205;SDS011;22242;48.796;9.930;2024-02-04T10:58:42;0.38;;;0.35;;
36205;SDS011;22242;48.796;9.930;2024-02-04T11:01:10;0.75;;;0.50;;
36205;SDS011;22242;48.796;9.930;2024-02-04T11:03:37;0.50;;;0.32;;
36205;SDS011;22242;48.796;9.930;2024-02-04T11:06:05;1.55;;;0.30;;
36205;SDS011;22242;48.796;9.930;2024-02-04T11:08:35;0.40;;;0.30;;
36205;SDS011;22242;48.796;9.930;2024-02-04T11:11:04;0.30;;;0.20;;
36205;SDS011;22242;48.796;9.930;2024-02-04T11:13:30;0.45;;;0.30;;
36205;SDS011;22242;48.796;9.930;2024-02-04T11:15:58;0.68;;;0.50;;
36205;SDS011;22242;48.796;9.930;2024-02-04T11:21:22;0.20;;;0.20;;
36205;SDS011;22242;48.796;9.930;2024-02-04T11:24:12;0.77;;;0.50;;
36205;SDS011;22242;48.796;9.930;2024-02-04T11:26:48;0.38;;;0.20;;
36205;SDS011;22242;48.796;9.930;2024-02-04T11:29:15;0.90;;;0.30;;
36205;SDS011;22242;48.796;9.930;2024-02-04T11:31:43;0.50;;;0.50;;
36205;SDS011;22242;48.796;9.930;2024-02-04T11:34:10;0.30;;;0.30;;
36205;SDS011;22242;48.796;9.930;2024-02-04T11:36:37;0.45;;;0.35;;
36205;SDS011;22242;48.796;9.930;2024-02-04T11:39:12;0.38;;;0.38;;
36205;SDS011;22242;48.796;9.930;2024-02-04T11:41:46;0.80;;;0.25;;
36205;SDS011;22242;48.796;9.930;2024-02-04T11:46:46;1.15;;;0.40;;
36205;SDS011;22242;48.796;9.930;2024-02-04T11:49:14;0.60;;;0.30;;
36205;SDS011;22242;48.796;9.930;2024-02-04T11:51:44;0.93;;;0.22;;
36205;SDS011;22242;48.796;9.930;2024-02-04T11:54:15;0.45;;;0.38;;
36205;SDS011;22242;48.796;9.930;2024-02-04T11:56:44;0.57;;;0.40;;
36205;SDS011;22242;48.796;9.930;2024-02-04T11:59:17;0.25;;;0.25;;
36205;SDS011;22242;48.796;9.930;2024-02-04T12:01:45;0.50;;;0.20;;
36205;SDS011;22242;48.796;9.930;2024-02-04T12:04:13;0.30;;;0.30;;
36205;SDS011;22242;48.796;9.930;2024-02-04T12:06:42;1.45;;;0.35;;
36205;SDS011;22242;48.796;9.930;2024-02-04T12:09:09;0.20;;;0.20;;
36205;SDS011;22242;48.796;9.930;2024-02-04T12:11:39;0.25;;;0.22;;
36205;SDS011;22242;48.796;9.930;2024-02-04T12:14:06;0.20;;;0.20;;
36205;SDS011;22242;48.796;9.930;2024-02-04T12:16:34;1.48;;;0.40;;
36205;SDS011;22242;48.796;9.930;2024-02-04T12:19:01;0.35;;;0.32;;
36205;SDS011;22242;48.796;9.930;2024-02-04T12:21:29;0.55;;;0.47;;
36205;SDS011;22242;48.796;9.930;2024-02-04T12:23:56;0.60;;;0.38;;
36205;SDS011;22242;48.796;9.930;2024-02-04T12:26:24;0.40;;;0.40;;
36205;SDS011;22242;48.796;9.930;2024-02-04T12:28:53;1.63;;;0.50;;
36205;SDS011;22242;48.796;9.930;2024-02-04T12:31:20;1.50;;;0.73;;
36205;SDS011;22242;48.796;9.930;2024-02-04T12:33:52;0.30;;;0.20;;
36205;SDS011;22242;48.796;9.930;2024-02-04T12:36:20;3.55;;;1.10;;
36205;SDS011;22242;48.796;9.930;2024-02-04T12:38:50;0.40;;;0.40;;
36205;SDS011;22242;48.796;9.930;2024-02-04T12:41:20;0.10;;;0.10;;
36205;SDS011;22242;48.796;9.930;2024-02-04T12:43:53;0.55;;;0.55;;
36205;SDS011;22242;48.796;9.930;2024-02-04T12:46:21;0.53;;;0.50;;
36205;SDS011;22242;48.796;9.930;2024-02-04T12:48:52;0.22;;;0.22;;
36205;SDS011;22242;48.796;9.930;2024-02-04T12:51:23;0.45;;;0.32;;
36205;SDS011;22242;48.796;9.930;2024-02-04T12:54:01;1.23;;;0.28;;
36205;SDS011;22242;48.796;9.930;2024-02-04T12:56:38;0.50;;;0.35;;
36205;SDS011;22242;48.796;9.930;2024-02-04T12:59:08;0.73;;;0.30;;
36205;SDS011;22242;48.796;9.930;2024-02-04T13:01:35;0.30;;;0.30;;
36205;SDS011;22242;48.796;9.930;2024-02-04T13:04:02;0.50;;;0.30;;
36205;SDS011;22242;48.796;9.930;2024-02-04T13:06:30;0.40;;;0.30;;
36205;SDS011;22242;48.796;9.930;2024-02-04T13:08:57;0.85;;;0.32;;
36205;SDS011;22242;48.796;9.930;2024-02-04T13:11:24;1.17;;;0.40;;
36205;SDS011;22242;48.796;9.930;2024-02-04T13:13:51;1.02;;;0.38;;
36205;SDS011;22242;48.796;9.930;2024-02-04T13:16:19;0.55;;;0.28;;
36205;SDS011;22242;48.796;9.930;2024-02-04T13:18:51;2.08;;;0.38;;
36205;SDS011;22242;48.796;9.930;2024-02-04T13:21:18;0.38;;;0.30;;
36205;SDS011;22242;48.796;9.930;2024-02-04T13:23:47;2.03;;;0.47;;
36205;SDS011;22242;48.796;9.930;2024-02-04T13:26:14;1.55;;;0.38;;
36205;SDS011;22242;48.796;9.930;2024-02-04T13:28:41;0.30;;;0.30;;
36205;SDS011;22242;48.796;9.930;2024-02-04T13:31:08;2.33;;;0.63;;
36205;SDS011;22242;48.796;9.930;2024-02-04T13:33:37;2.67;;;0.50;;
36205;SDS011;22242;48.796;9.930;2024-02-04T13:36:05;1.58;;;0.60;;
36205;SDS011;22242;48.796;9.930;2024-02-04T13:38:33;3.40;;;0.73;;
36205;SDS011;22242;48.796;9.930;2024-02-04T13:41:00;1.38;;;0.30;;
36205;SDS011;22242;48.796;9.930;2024-02-04T13:43:26;0.38;;;0.38;;
36205;SDS011;22242;48.796;9.930;2024-02-04T13:45:53;0.85;;;0.32;;
36205;SDS011;22242;48.796;9.930;2024-02-04T13:48:20;0.50;;;0.50;;
36205;SDS011;22242;48.796;9.930;2024-02-04T13:50:51;0.50;;;0.30;;
36205;SDS011;22242;48.796;9.930;2024-02-04T13:53:19;2.22;;;0.43;;
36205;SDS011;22242;48.796;9.930;2024-02-04T13:55:46;0.63;;;0.40;;
36205;SDS011;22242;48.796;9.930;2024-02-04T13:58:13;0.28;;;0.22;;
36205;SDS011;22242;48.796;9.930;2024-02-04T14:00:40;0.82;;;0.40;;
36205;SDS011;22242;48.796;9.930;2024-02-04T14:03:07;1.35;;;0.50;;
36205;SDS011;22242;48.796;9.930;2024-02-04T14:05:34;0.90;;;0.63;;
36205;SDS011;22242;48.796;9.930;2024-02-04T14:08:03;1.00;;;0.50;;
36205;SDS011;22242;48.796;9.930;2024-02-04T14:10:30;0.82;;;0.57;;
36205;SDS011;22242;48.796;9.930;2024-02-04T14:12:57;0.70;;;0.50;;
36205;SDS011;22242;48.796;9.930;2024-02-04T14:15:24;0.95;;;0.65;;
36205;SDS011;22242;48.796;9.930;2024-02-04T14:17:51;1.67;;;0.77;;
36205;SDS011;22242;48.796;9.930;2024-02-04T14:20:19;0.50;;;0.50;;
36205;SDS011;22242;48.796;9.930;2024-02-04T14:22:47;0.80;;;0.50;;
36205;SDS011;22242;48.796;9.930;2024-02-04T14:25:15;0.47;;;0.40;;
36205;SDS011;22242;48.796;9.930;2024-02-04T14:27:42;0.70;;;0.60;;
36205;SDS011;22242;48.796;9.930;2024-02-04T14:30:09;1.15;;;0.60;;
36205;SDS011;22242;48.796;9.930;2024-02-04T14:32:37;0.50;;;0.50;;
36205;SDS011;22242;48.796;9.930;2024-02-04T14:35:04;3.40;;;0.60;;
36205;SDS011;22242;48.796;9.930;2024-02-04T14:37:33;0.55;;;0.40;;
36205;SDS011;22242;48.796;9.930;2024-02-04T14:40:00;1.42;;;0.50;;
36205;SDS011;22242;48.796;9.930;2024-02-04T14:42:29;0.93;;;0.70;;
36205;SDS011;22242;48.796;9.930;2024-02-04T14:44:56;0.75;;;0.60;;
36205;SDS011;22242;48.796;9.930;2024-02-04T14:47:25;0.95;;;0.60;;
36205;SDS011;22242;48.796;9.930;2024-02-04T14:49:52;0.70;;;0.50;;
36205;SDS011;22242;48.796;9.930;2024-02-04T14:52:19;1.13;;;0.65;;
36205;SDS011;22242;48.796;9.930;2024-02-04T14:54:46;1.48;;;0.70;;
36205;SDS011;22242;48.796;9.930;2024-02-04T14:57:13;0.50;;;0.50;;
36205;SDS011;22242;48.796;9.930;2024-02-04T14:59:41;1.00;;;0.60;;